Terminal Aerodrome Forecast
Issued by NWS

Home | Current Version | Previous Version | Text Only | Print | Product List | Glossary On
Versions: 1 2 3 4 5 6 7 8 9 10 11 12
242
FTUS44 KSJT 231124
TAFBBD
TAF
KBBD 231124Z 2312/2412 08005KT 1SM BR VCSH OVC003
      TEMPO 2312/2315 1/2SM FG
     FM231800 13006KT 4SM BR VCSH BKN005
     FM232100 12006KT 6SM BR BKN008
     FM240200 VRB04KT 4SM BR OVC005
      AMD NOT SKED=

USA.gov is the U.S. government's official web portal to all federal, state and local government web resources and services.